1954 Tropical Cyclone NOT_NAMED (1954003S13142)


IBTrACS version v04r00. Visit IBTrACS website for data access.
Please direct all questions to the IBTrACS Q and A forum

Storm track - Intensity - Wind Radii - Intensity Data - Source Data - All data

Summary Information

Storm ID 1954003S13142
Start Jan 2 23Z
Max Intensity 35 kt (Jan 4 00Z), 996 mb (Jan 3 23Z)
End Jan 8 23Z
ATCF IDs ,SH021954
Track status Best track data.

Storm track plot

Map of storm track

Intensity plots

Map of storm track

Radial wind information

No radial wind information for this storm


Position and Intensity Table

BASIN ISO_TIME_________ NATURE LAT LON WMO PRES BOM PRES DS824 WIND DS824 PRES
degrees north degrees east mb mb kts mb
SP 1954-01-02 23:00:00 NR -13.00 142.15 1000 1000
SP 1954-01-03 00:00:00 TS -13.14 142.49 30 1000
SP 03:00:00 TS -13.56 143.46
SP 04:00:00 TS -13.70 143.78
SP 06:00:00 TS -14.00 144.41
SP 09:00:00 TS -14.47 145.34
SP 11:00:00 TS -14.79 145.95
SP 12:00:00 TS -14.95 146.25
SP 15:00:00 TS -15.42 147.14
SP 18:00:00 TS -15.88 148.01
SP 21:00:00 TS -16.36 148.87
SP 23:00:00 TS -16.66 149.45 996 996
SP 1954-01-04 00:00:00 TS -16.79 149.74 35 996
SP 03:00:00 TS -17.16 150.61
SP 06:00:00 TS -17.50 151.47
SP 09:00:00 TS -17.87 152.35
SP 11:00:00 TS -18.13 152.92
SP 12:00:00 TS -18.27 153.21
SP 15:00:00 TS -18.73 154.05
SP 18:00:00 TS -19.22 154.86
SP 21:00:00 TS -19.71 155.62
SP 23:00:00 TS -20.03 156.10 996 996
SP 1954-01-05 00:00:00 TS -20.18 156.34 35 996
SP 03:00:00 TS -20.64 157.02
SP 06:00:00 TS -21.09 157.66
SP 09:00:00 TS -21.52 158.25
SP 11:00:00 TS -21.81 158.62
SP 12:00:00 TS -21.95 158.81
SP 15:00:00 TS -22.39 159.37
SP 18:00:00 TS -22.82 159.91
SP 21:00:00 TS -23.22 160.42
SP 23:00:00 TS -23.47 160.73 998 998
SP 1954-01-06 00:00:00 TS -23.59 160.88 35 998
SP 03:00:00 TS -23.98 161.24
SP 06:00:00 TS -24.36 161.53
SP 09:00:00 TS -24.71 161.79
SP 11:00:00 TS -24.94 161.94
SP 12:00:00 TS -25.06 162.02
SP 15:00:00 TS -25.43 162.22
SP 18:00:00 TS -25.80 162.37
SP 21:00:00 TS -26.14 162.48
SP 23:00:00 TS -26.39 162.50 998 998
SP 1954-01-07 00:00:00 TS -26.53 162.49 35 998
SP 03:00:00 TS -27.06 162.33
SP 06:00:00 TS -27.64 162.04
SP 09:00:00 TS -28.19 161.71
SP 11:00:00 TS -28.55 161.46
SP 12:00:00 TS -28.71 161.32
SP 15:00:00 TS -29.19 160.85
SP 18:00:00 TS -29.65 160.37
SP 21:00:00 TS -30.08 159.92
SP 23:00:00 TS -30.37 159.68
SP 1954-01-08 00:00:00 TS -30.51 159.60
SP 03:00:00 TS -30.98 159.35
SP 06:00:00 TS -31.48 159.19
SP 09:00:00 TS -31.96 159.07
SP 11:00:00 TS -32.31 159.01
SP 12:00:00 TS -32.50 158.99
SP 15:00:00 TS -33.12 158.95
SP 18:00:00 TS -33.80 158.94
SP 21:00:00 NR -34.52 158.98
SP 23:00:00 NR -35.00 159.00

Source Information

Agency Information
USA bsh021954.txt
TOKYO
CMA
HKO
NEWDELHI
REUNION
BOM IDCKMSTM0S.csv:Line=1851:unnamed
NADI
WELLINGTON
DS824 aus_area.dat:201:NOT NAMED
TD9636 cons_worldwide_trop_cyclone_18710101-19891231-006:Line=4045
TD9635
NEUMANN
MLC

All available IBTrACS Data

SEASON BASIN SUBBASIN ISO_TIME_________ NATURE LAT LON WMO PRES WMO AGENCY DIST2LAND LANDFALL IFLAG USA AGENCY USA ATCF_ID USA LAT USA LON USA SSHS BOM LAT BOM LON BOM PRES BOM PRES_METHOD DS824 LAT DS824 LON DS824 STAGE DS824 WIND DS824 PRES TD9636 LAT TD9636 LON TD9636 STAGE STORM SPEED STORM DIR
Year degrees north degrees east mb km km degrees north degrees east 1 degrees north degrees east mb degrees north degrees east kts mb degrees north degrees east kts degrees
1954 SP EA 1954-01-02 23:00:00 NR -13.00 142.15 1000 bom 0 0 ______O___O___ -1 -13.00 142.00 1000 -13.00 142.30 2 22 113
1954 SP EA 1954-01-03 00:00:00 TS -13.14 142.49 0 0 O_____P__OP___ jtwc_sh SH021954 -13.20 142.60 -1 -13.09 142.34 -13.10 142.30 TC 30 1000 -13.16 142.61 2 21 114
1954 SP EA 03:00:00 TS -13.56 143.46 0 0 P_____P__PP___ SH021954 -13.64 143.56 -1 -13.39 143.36 -13.54 143.25 TC -13.62 143.56 2 21 114
1954 SP EA 04:00:00 TS -13.70 143.78 bom 31 31 P_____O__PP___ SH021954 -13.79 143.87 -1 -13.50 143.70 -13.69 143.57 TC -13.78 143.87 2 21 116
1954 SP EA 06:00:00 TS -14.00 144.41 33 22 O_____P__PP___ jtwc_sh SH021954 -14.10 144.50 -1 -13.74 144.36 -13.98 144.21 TC -14.09 144.49 2 20 117
1954 SP EA 09:00:00 TS -14.47 145.34 46 46 P_____P__PP___ SH021954 -14.60 145.42 -1 -14.16 145.32 -14.42 145.16 TC -14.57 145.40 2 20 118
1954 SP EA 11:00:00 TS -14.79 145.95 78 78 P_____P__PO___ SH021954 -14.94 146.01 -1 -14.46 145.95 -14.71 145.79 TC -14.90 146.00 2 20 119
1954 SP EA 12:00:00 TS -14.95 146.25 106 102 O_____P__PP___ jtwc_sh SH021954 -15.10 146.30 -1 -14.62 146.26 -14.85 146.11 TC -15.07 146.29 2 20 119
1954 SP EA 15:00:00 TS -15.42 147.14 182 182 P_____P__PP___ SH021954 -15.56 147.16 -1 -15.12 147.17 -15.29 147.05 TC -15.57 147.15 2 19 119
1954 SP EA 18:00:00 TS -15.88 148.01 255 255 O_____P__PP___ jtwc_sh SH021954 -16.00 148.00 -1 -15.64 148.06 -15.72 147.98 TC -16.06 148.00 2 19 119
1954 SP EA 21:00:00 TS -16.36 148.87 318 318 P_____P__PP___ SH021954 -16.47 148.85 -1 -16.16 148.93 -16.16 148.90 TC -16.52 148.84 2 19 119
1954 SP EA 23:00:00 TS -16.66 149.45 996 bom 359 359 P_____O__PO___ SH021954 -16.77 149.42 -1 -16.50 149.50 996 4 -16.45 149.50 TC -16.80 149.40 2 19 118
1954 SP EA 1954-01-04 00:00:00 TS -16.79 149.74 379 379 O_____P__OP___ jtwc_sh SH021954 -16.90 149.70 -1 -16.65 149.80 -16.60 149.80 TC 35 996 -16.91 149.69 2 18 114
1954 SP EA 03:00:00 TS -17.16 150.61 395 395 P_____P__PP___ SH021954 -17.21 150.54 -1 -17.10 150.68 -17.04 150.69 TC -17.21 150.57 2 18 113
1954 SP EA 06:00:00 TS -17.50 151.47 422 421 O_____P__PP___ jtwc_sh SH021954 -17.50 151.40 -1 -17.54 151.55 -17.49 151.56 TC -17.48 151.45 2 18 113
1954 SP EA 09:00:00 TS -17.87 152.35 455 455 P_____P__PP___ SH021954 -17.82 152.30 -1 -17.98 152.41 -17.94 152.40 TC -17.77 152.33 2 18 114
1954 SP EA 11:00:00 TS -18.13 152.92 495 495 P_____P__PO___ SH021954 -18.06 152.90 -1 -18.26 152.96 -18.25 152.95 TC -18.00 152.90 2 18 116
1954 SP EA 12:00:00 TS -18.27 153.21 513 513 O_____P__PP___ jtwc_sh SH021954 -18.20 153.20 -1 -18.41 153.23 -18.40 153.22 TC -18.14 153.19 2 18 119
1954 SP EA 15:00:00 TS -18.73 154.05 544 535 P_____P__PP___ SH021954 -18.68 154.07 -1 -18.84 154.03 -18.85 154.02 TC -18.61 154.06 2 18 121
1954 SP EA 18:00:00 TS -19.22 154.86 563 556 O_____P__PP___ jtwc_sh SH021954 -19.20 154.90 -1 -19.27 154.80 -19.30 154.78 TC -19.13 154.91 2 18 123
1954 SP EA 21:00:00 TS -19.71 155.62 588 588 P_____P__PP___ SH021954 -19.71 155.68 -1 -19.71 155.53 -19.75 155.51 TC -19.66 155.71 2 17 125
1954 SP EA 23:00:00 TS -20.03 156.10 996 bom 608 598 P_____O__PO___ SH021954 -20.04 156.17 -1 -20.00 156.00 996 -20.05 155.97 TC -20.00 156.20 2 16 125
1954 SP EA 1954-01-05 00:00:00 TS -20.18 156.34 599 597 O_____P__OP___ jtwc_sh SH021954 -20.20 156.40 -1 -20.15 156.24 -20.20 156.20 TC 35 996 -20.16 156.43 2 16 126
1954 SP EA 03:00:00 TS -20.64 157.02 603 598 P_____P__PP___ SH021954 -20.66 157.08 -1 -20.61 156.95 -20.65 156.91 TC -20.62 157.08 2 15 126
1954 SP EA 06:00:00 TS -21.09 157.66 611 611 O_____P__PP___ jtwc_sh SH021954 -21.10 157.70 -1 -21.08 157.62 -21.10 157.58 TC -21.08 157.68 2 14 127
1954 SP EA 09:00:00 TS -21.52 158.25 617 584 P_____P__PP___ SH021954 -21.50 158.27 -1 -21.54 158.26 -21.55 158.22 TC -21.52 158.24 2 14 128
1954 SP EA 11:00:00 TS -21.81 158.62 584 568 P_____P__PO___ SH021954 -21.76 158.62 -1 -21.85 158.66 -21.85 158.62 TC -21.80 158.60 2 14 129
1954 SP EA 12:00:00 TS -21.95 158.81 568 535 O_____P__PP___ jtwc_sh SH021954 -21.90 158.80 -1 -22.00 158.85 -22.00 158.82 TC -21.94 158.80 2 14 130
1954 SP EA 15:00:00 TS -22.39 159.37 530 507 P_____P__PP___ SH021954 -22.36 159.35 -1 -22.46 159.40 -22.44 159.37 TC -22.35 159.40 2 13 131
1954 SP EA 18:00:00 TS -22.82 159.91 507 491 O_____P__PP___ jtwc_sh SH021954 -22.80 159.90 -1 -22.90 159.89 -22.87 159.87 TC -22.75 159.98 2 13 130
1954 SP MM 21:00:00 TS -23.22 160.42 491 479 P_____P__PP___ SH021954 -23.16 160.49 -1 -23.33 160.34 -23.29 160.31 TC -23.14 160.50 2 12 130
1954 SP MM 23:00:00 TS -23.47 160.73 998 bom 485 477 P_____O__PO___ SH021954 -23.38 160.85 -1 -23.60 160.60 998 -23.57 160.58 TC -23.40 160.80 2 11 132
1954 SP MM 1954-01-06 00:00:00 TS -23.59 160.88 477 471 O_____P__OP___ jtwc_sh SH021954 -23.50 161.00 -1 -23.72 160.75 -23.70 160.70 TC 35 998 -23.53 160.94 2 10 138
1954 SP MM 03:00:00 TS -23.98 161.24 477 468 P_____P__PP___ SH021954 -23.90 161.35 -1 -24.08 161.17 -24.09 161.03 TC -23.91 161.31 2 10 142
1954 SP MM 06:00:00 TS -24.36 161.53 483 476 O_____P__PP___ jtwc_sh SH021954 -24.30 161.60 -1 -24.42 161.54 -24.48 161.30 TC -24.28 161.62 2 9 146
1954 SP MM 09:00:00 TS -24.71 161.79 486 486 P_____P__PP___ SH021954 -24.65 161.87 -1 -24.75 161.84 -24.85 161.52 TC -24.65 161.86 2 8 148
1954 SP MM 11:00:00 TS -24.94 161.94 496 496 P_____P__PO___ SH021954 -24.88 162.03 -1 -24.97 162.01 -25.09 161.65 TC -24.90 162.00 2 8 150
1954 SP MM 12:00:00 TS -25.06 162.02 508 502 O_____P__PP___ jtwc_sh SH021954 -25.00 162.10 -1 -25.08 162.08 -25.21 161.71 TC -25.02 162.09 2 8 152
1954 SP MM 15:00:00 TS -25.43 162.22 525 525 P_____P__PP___ SH021954 -25.40 162.33 -1 -25.42 162.25 -25.56 161.86 TC -25.36 162.34 2 8 157
1954 SP MM 18:00:00 TS -25.80 162.37 553 553 O_____P__PP___ jtwc_sh SH021954 -25.80 162.50 -1 -25.77 162.34 -25.91 161.98 TC -25.71 162.52 2 8 162
1954 SP MM 21:00:00 TS -26.14 162.48 576 576 P_____P__PP___ SH021954 -26.12 162.62 -1 -26.14 162.35 -26.26 162.10 TC -26.10 162.61 2 7 169
1954 SP MM 23:00:00 TS -26.39 162.50 998 bom 603 603 P_____O__PO___ SH021954 -26.36 162.63 -1 -26.40 162.30 998 -26.49 162.17 TC -26.40 162.60 2 8 179
1954 SP MM 1954-01-07 00:00:00 TS -26.53 162.49 612 612 O_____P__OP___ jtwc_sh SH021954 -26.50 162.60 -1 -26.54 162.26 -26.60 162.20 TC 35 998 -26.57 162.57 2 10 193
1954 SP MM 03:00:00 TS -27.06 162.33 677 677 P_____P___P___ SH021954 -27.07 162.41 -1 -26.97 162.09 TC -27.14 162.41 2 12 200
1954 SP MM 06:00:00 TS -27.64 162.04 739 739 O_____P___P___ jtwc_sh SH021954 -27.70 162.10 -1 -27.42 161.83 TC -27.74 162.13 2 13 206
1954 SP MM 09:00:00 TS -28.19 161.71 792 770 P_____P___P___ SH021954 -28.27 161.79 -1 -27.90 161.51 TC -28.33 161.77 2 13 209
1954 SP MM 11:00:00 TS -28.55 161.46 770 749 P_____P___O___ SH021954 -28.63 161.54 -1 -28.23 161.26 TC -28.70 161.50 2 13 214
1954 SP MM 12:00:00 TS -28.71 161.32 749 709 O_____P___P___ jtwc_sh SH021954 -28.80 161.40 -1 -28.40 161.13 TC -28.86 161.36 2 13 220
1954 SP MM 15:00:00 TS -29.19 160.85 709 663 P_____P___P___ SH021954 -29.27 160.91 -1 -28.91 160.70 TC -29.30 160.90 2 13 222
1954 SP MM 18:00:00 TS -29.65 160.37 663 623 O_____P___P___ jtwc_sh SH021954 -29.70 160.40 -1 -29.43 160.23 TC -29.72 160.41 2 12 222
1954 SP EA 21:00:00 TS -30.08 159.92 623 609 P_____P___P___ SH021954 -30.09 159.95 -1 -29.95 159.74 TC -30.12 159.96 2 11 220
1954 SP EA 23:00:00 TS -30.37 159.68 bom 611 602 P_____O___O___ SH021954 -30.36 159.71 -1 -30.30 159.40 TC -30.40 159.70 2 10 213
1954 SP EA 1954-01-08 00:00:00 TS -30.51 159.60 605 592 O_________P___ jtwc_sh SH021954 -30.50 159.60 -1 -30.54 159.60 2 10 205
1954 SP EA 03:00:00 TS -30.98 159.35 587 579 P_________P___ SH021954 -30.98 159.35 -1 -30.97 159.34 2 10 200
1954 SP EA 06:00:00 TS -31.48 159.19 580 571 O_________P___ jtwc_sh SH021954 -31.50 159.20 -1 -31.43 159.16 2 10 194
1954 SP EA 09:00:00 TS -31.96 159.07 576 568 P_________P___ SH021954 -31.98 159.08 -1 -31.93 159.05 2 10 190
1954 SP EA 11:00:00 TS -32.31 159.01 573 573 P_________O___ SH021954 -32.32 159.02 -1 -32.30 159.00 2 11 187
1954 SP EA 12:00:00 TS -32.50 158.99 578 578 O_________P___ jtwc_sh SH021954 -32.50 159.00 -1 -32.50 158.98 2 12 184
1954 SP EA 15:00:00 TS -33.12 158.95 597 591 P_________P___ SH021954 -33.12 158.95 -1 -33.13 158.96 2 13 182
1954 SP EA 18:00:00 TS -33.80 158.94 611 611 O_________P___ jtwc_sh SH021954 -33.80 158.90 -1 -33.81 158.96 2 14 179
1954 SP EA 21:00:00 NR -34.52 158.98 645 645 __________P___ SH021954 -1 -34.52 158.98 2 14 177
1954 SP EA 23:00:00 NR -35.00 159.00 666 __________O___ SH021954 -1 -35.00 159.00 2 15 177